Time;durP1;ratioP1;P1;durP2;ratioP2;P2;SDS_P1;SDS_P2;PMS_P1;PMS_P2;Temp;Humidity;BMP_temperature;BMP_pressure;BME280_temperature;BME280_humidity;BME280_pressure;Samples;Min_cycle;Max_cycle;Signal;HPM_P1;HPM_P2
2023/04/26 00:01:45;;;;;;;11.23;5.00;;;;;;;2.68;100.00;101950.16;4913955;29;20028;-88
2023/04/26 00:04:11;;;;;;;13.13;4.80;;;;;;;2.65;100.00;101945.84;4914045;29;20112;-88
2023/04/26 00:06:36;;;;;;;13.05;4.95;;;;;;;2.59;100.00;101944.81;4895993;29;20107;-88
2023/04/26 00:09:03;;;;;;;11.32;5.25;;;;;;;2.57;100.00;101947.34;4913252;29;20478;-88
2023/04/26 00:11:29;;;;;;;11.40;4.82;;;;;;;2.56;100.00;101944.72;4897576;29;20027;-88
2023/04/26 00:13:54;;;;;;;13.95;5.35;;;;;;;2.47;100.00;101939.34;4912691;29;20521;-87
2023/04/26 00:16:19;;;;;;;14.23;5.00;;;;;;;2.47;100.00;101944.47;4896927;29;20028;-87
2023/04/26 00:18:45;;;;;;;13.30;5.50;;;;;;;2.45;100.00;101941.03;4914456;29;20046;-87
2023/04/26 00:21:11;;;;;;;12.45;5.22;;;;;;;2.38;100.00;101929.75;4896813;29;20036;-88
2023/04/26 00:23:36;;;;;;;13.45;5.60;;;;;;;2.31;100.00;101936.41;4912255;29;20028;-88
2023/04/26 00:26:02;;;;;;;13.20;5.70;;;;;;;2.31;100.00;101932.97;4896677;29;20106;-88
2023/04/26 00:28:28;;;;;;;14.95;5.13;;;;;;;2.28;100.00;101932.88;4912628;29;20417;-88
2023/04/26 00:30:56;;;;;;;11.68;5.18;;;;;;;2.27;100.00;101936.25;4913985;29;20402;-87
2023/04/26 00:33:22;;;;;;;14.70;5.68;;;;;;;2.29;100.00;101939.72;4913364;29;20036;-88
2023/04/26 00:35:47;;;;;;;12.00;5.25;;;;;;;2.25;100.00;101943.88;4914337;29;20043;-87
2023/04/26 00:38:13;;;;;;;11.82;5.57;;;;;;;2.22;100.00;101942.94;4895828;29;20039;-88
2023/04/26 00:40:38;;;;;;;13.13;5.55;;;;;;;2.23;100.00;101944.69;4896751;29;20028;-88
2023/04/26 00:43:04;;;;;;;15.48;5.22;;;;;;;2.22;100.00;101948.94;4912059;29;20107;-88
2023/04/26 00:45:30;;;;;;;11.35;5.07;;;;;;;2.18;100.00;101948.81;4913840;29;20126;-87
2023/04/26 00:47:57;;;;;;;12.57;5.25;;;;;;;2.11;100.00;101935.00;4913712;29;20460;-87
2023/04/26 00:50:23;;;;;;;13.25;5.65;;;;;;;2.13;100.00;101938.44;4913017;29;20403;-88
2023/04/26 00:52:49;;;;;;;15.07;5.90;;;;;;;2.13;100.00;101941.00;4913431;29;20028;-87
2023/04/26 00:55:15;;;;;;;13.45;5.63;;;;;;;2.15;100.00;101941.91;4913197;29;20050;-87
2023/04/26 00:57:40;;;;;;;16.08;5.90;;;;;;;2.15;100.00;101941.91;4912945;29;20070;-87
2023/04/26 01:00:06;;;;;;;14.07;5.57;;;;;;;2.10;100.00;101943.47;4913797;29;20402;-87
2023/04/26 01:02:32;;;;;;;13.85;5.38;;;;;;;2.05;100.00;101944.19;4911339;29;20102;-87
2023/04/26 01:04:57;;;;;;;12.48;5.30;;;;;;;2.03;100.00;101943.25;4914052;29;20036;-87
2023/04/26 01:07:23;;;;;;;15.45;5.60;;;;;;;1.98;100.00;101940.53;4913718;29;20032;-88
2023/04/26 01:09:48;;;;;;;15.43;6.50;;;;;;;1.98;100.00;101946.53;4895430;29;20066;-87
2023/04/26 01:12:14;;;;;;;14.23;6.13;;;;;;;1.88;100.00;101934.31;4895890;29;20042;-88
2023/04/26 01:14:39;;;;;;;13.48;6.03;;;;;;;1.94;100.00;101943.84;4897410;29;20032;-88
2023/04/26 01:17:05;;;;;;;16.45;6.30;;;;;;;1.92;100.00;101942.94;4914736;29;20040;-88
2023/04/26 01:19:31;;;;;;;19.02;7.10;;;;;;;1.79;100.00;101925.50;4913508;29;20354;-87
2023/04/26 01:21:57;;;;;;;14.32;5.80;;;;;;;1.87;100.00;101944.50;4914518;29;20390;-87
2023/04/26 01:24:22;;;;;;;17.05;6.80;;;;;;;1.87;100.00;101949.59;4912550;29;20517;-88
2023/04/26 01:26:48;;;;;;;16.85;6.85;;;;;;;1.87;100.00;101954.72;4913113;29;20449;-87
2023/04/26 01:29:20;;;;;;;15.35;5.95;;;;;;;1.78;100.00;101946.78;4912525;29;20027;-87
2023/04/26 01:31:47;;;;;;;14.10;6.00;;;;;;;1.77;100.00;101958.72;4895805;29;20506;-88
2023/04/26 01:34:12;;;;;;;16.05;6.32;;;;;;;1.71;100.00;101952.50;4896478;29;20515;-88
2023/04/26 01:36:38;;;;;;;17.05;6.75;;;;;;;1.72;100.00;101949.16;4895425;29;20051;-87
2023/04/26 01:39:04;;;;;;;16.35;6.47;;;;;;;1.68;100.00;101949.88;4913016;29;20047;-87
2023/04/26 01:41:29;;;;;;;16.52;6.00;;;;;;;1.59;100.00;101936.00;4913037;29;20463;-87
2023/04/26 01:43:55;;;;;;;17.13;6.55;;;;;;;1.59;100.00;101951.34;4912673;29;20038;-87
2023/04/26 01:46:21;;;;;;;17.67;6.93;;;;;;;1.55;100.00;101954.63;4912873;29;20746;-87
2023/04/26 01:48:46;;;;;;;16.08;6.55;;;;;;;1.53;100.00;101947.72;4894873;29;20099;-87
2023/04/26 01:51:12;;;;;;;16.83;6.53;;;;;;;1.53;100.00;101953.72;4912503;29;20040;-88
2023/04/26 01:53:37;;;;;;;15.88;5.93;;;;;;;1.53;100.00;101956.25;4912399;29;20053;-87
2023/04/26 01:56:04;;;;;;;14.25;6.43;;;;;;;1.51;100.00;101950.22;4912967;29;20813;-88
2023/04/26 01:58:30;;;;;;;19.55;6.35;;;;;;;1.43;100.00;101954.22;4911589;29;20095;-87
2023/04/26 02:00:56;;;;;;;15.40;6.03;;;;;;;1.43;100.00;101954.22;4912286;29;20028;-87
2023/04/26 02:03:22;;;;;;;16.40;5.72;;;;;;;1.37;100.00;101946.38;4913377;29;20067;-87
2023/04/26 02:05:47;;;;;;;17.52;6.57;;;;;;;1.39;100.00;101954.09;4913114;29;20105;-87
2023/04/26 02:08:13;;;;;;;12.70;5.80;;;;;;;1.39;100.00;101959.19;4911238;29;20111;-88
2023/04/26 02:10:38;;;;;;;13.40;6.13;;;;;;;1.31;100.00;101941.09;4911983;29;20033;-87
2023/04/26 02:13:07;;;;;;;18.77;6.28;;;;;;;1.38;100.00;101962.56;4895950;29;20364;-87
2023/04/26 02:15:32;;;;;;;16.40;6.50;;;;;;;1.33;100.00;101953.91;4911376;29;20024;-88
2023/04/26 02:17:57;;;;;;;14.20;5.78;;;;;;;1.27;100.00;101941.81;4913331;29;20044;-87
2023/04/26 02:20:23;;;;;;;16.30;6.13;;;;;;;1.31;100.00;101958.97;4893905;29;20071;-88
2023/04/26 02:22:48;;;;;;;14.93;5.95;;;;;;;1.29;100.00;101958.06;4910531;29;20458;-87
2023/04/26 02:25:13;;;;;;;16.30;6.07;;;;;;;1.25;100.00;101952.78;4897909;29;20031;-88
2023/04/26 02:27:39;;;;;;;15.63;6.45;;;;;;;1.27;100.00;101957.13;4894603;29;20035;-88
2023/04/26 02:30:05;;;;;;;15.82;5.85;;;;;;;1.24;100.00;101958.72;4911772;29;20075;-87
2023/04/26 02:32:31;;;;;;;15.50;5.70;;;;;;;1.21;100.00;101954.41;4912675;29;20070;-88
2023/04/26 02:34:56;;;;;;;14.23;5.72;;;;;;;1.09;100.00;101938.69;4911961;29;20032;-88
2023/04/26 02:37:22;;;;;;;13.60;5.43;;;;;;;1.14;100.00;101945.66;4911122;29;20027;-87
2023/04/26 02:39:50;;;;;;;15.48;5.70;;;;;;;1.12;100.00;101946.44;4895945;29;20944;-87
2023/04/26 02:42:16;;;;;;;12.30;5.80;;;;;;;1.10;100.00;101940.38;4898392;29;20023;-88
2023/04/26 02:44:42;;;;;;;13.05;5.30;;;;;;;1.11;100.00;101947.25;4893885;29;20076;-87
2023/04/26 02:47:08;;;;;;;14.38;6.10;;;;;;;1.06;100.00;101939.44;4909072;29;20036;-88
2023/04/26 02:49:33;;;;;;;12.55;5.13;;;;;;;1.09;100.00;101947.19;4894464;29;20200;-87
2023/04/26 02:51:59;;;;;;;12.75;5.47;;;;;;;1.05;100.00;101939.38;4911683;29;20088;-87
2023/04/26 02:54:24;;;;;;;16.83;6.20;;;;;;;1.07;100.00;101942.88;4912342;29;20340;-88
2023/04/26 02:56:50;;;;;;;16.13;5.40;;;;;;;1.04;100.00;101941.06;4910181;29;20032;-88
2023/04/26 02:59:15;;;;;;;12.73;5.18;;;;;;;1.00;100.00;101938.38;4894659;29;20076;-87
2023/04/26 03:01:40;;;;;;;13.05;5.43;;;;;;;1.00;100.00;101933.28;4891329;29;20131;-88
2023/04/26 03:04:06;;;;;;;12.90;5.30;;;;;;;0.99;100.00;101936.63;4894468;29;20412;-87
2023/04/26 03:06:32;;;;;;;13.77;5.47;;;;;;;0.91;100.00;101928.72;4909760;29;20512;-88
2023/04/26 03:08:57;;;;;;;14.27;5.55;;;;;;;0.95;100.00;101934.81;4911265;29;20114;-87
2023/04/26 03:11:22;;;;;;;14.75;5.70;;;;;;;0.92;100.00;101929.59;4893642;29;20095;-87
2023/04/26 03:13:48;;;;;;;13.68;5.50;;;;;;;0.85;100.00;101925.97;4895547;29;20023;-87
2023/04/26 03:16:13;;;;;;;15.93;5.53;;;;;;;0.88;100.00;101933.75;4910209;29;20035;-87
2023/04/26 03:18:38;;;;;;;15.15;5.97;;;;;;;0.85;100.00;101932.75;4911994;29;20535;-87
2023/04/26 03:21:04;;;;;;;15.75;5.82;;;;;;;0.84;100.00;101931.88;4907995;29;20423;-87
2023/04/26 03:23:30;;;;;;;15.30;5.50;;;;;;;0.79;100.00;101936.84;4912334;29;20111;-88
2023/04/26 03:25:55;;;;;;;14.60;5.78;;;;;;;0.78;100.00;101935.13;4913632;29;20404;-87
2023/04/26 03:28:21;;;;;;;15.10;5.65;;;;;;;0.78;100.00;101937.66;4914964;29;20529;-87
2023/04/26 03:30:48;;;;;;;13.02;5.45;;;;;;;0.75;100.00;101932.44;4897392;29;20038;-87
2023/04/26 03:33:14;;;;;;;14.18;5.30;;;;;;;0.69;100.00;101923.72;4913041;29;20024;-87
2023/04/26 03:35:39;;;;;;;14.98;5.60;;;;;;;0.67;100.00;101923.69;4915139;29;20028;-87
2023/04/26 03:38:04;;;;;;;15.65;5.82;;;;;;;0.65;100.00;101932.97;4914533;29;20560;-87
2023/04/26 03:40:30;;;;;;;14.02;5.60;;;;;;;0.65;100.00;101924.44;4900286;29;20497;-87
2023/04/26 03:42:55;;;;;;;16.20;5.90;;;;;;;0.66;100.00;101929.59;4916771;29;20437;-87
2023/04/26 03:45:20;;;;;;;13.02;5.45;;;;;;;0.66;100.00;101921.09;4898484;29;20506;-87
2023/04/26 03:47:46;;;;;;;16.77;5.78;;;;;;;0.64;100.00;101923.56;4915033;29;20162;-87
2023/04/26 03:50:11;;;;;;;15.13;5.55;;;;;;;0.62;100.00;101924.31;4913172;29;20031;-87
2023/04/26 03:52:36;;;;;;;12.13;5.45;;;;;;;0.62;100.00;101926.88;4915321;29;20043;-87
2023/04/26 03:55:02;;;;;;;18.40;6.38;;;;;;;0.55;100.00;101923.25;4915251;29;20369;-88
2023/04/26 03:57:27;;;;;;;15.73;5.63;;;;;;;0.48;100.00;101917.91;4913885;29;20162;-87
2023/04/26 03:59:52;;;;;;;16.23;5.75;;;;;;;0.53;100.00;101931.69;4914971;29;20032;-87
2023/04/26 04:02:18;;;;;;;13.93;5.88;;;;;;;0.51;100.00;101926.53;4896970;29;20047;-87
2023/04/26 04:04:43;;;;;;;13.10;5.18;;;;;;;0.52;100.00;101925.72;4916451;29;20485;-87
2023/04/26 04:07:08;;;;;;;14.98;5.53;;;;;;;0.51;100.00;101925.66;4913634;29;20031;-87
2023/04/26 04:09:34;;;;;;;17.70;6.22;;;;;;;0.51;100.00;101929.06;4897198;29;21223;-87
2023/04/26 04:11:59;;;;;;;13.95;5.60;;;;;;;0.47;100.00;101917.03;4913956;29;20402;-88
2023/04/26 04:14:25;;;;;;;16.67;5.78;;;;;;;0.49;100.00;101910.28;4914239;29;20036;-88
2023/04/26 04:16:50;;;;;;;15.77;5.35;;;;;;;0.47;100.00;101918.72;4896527;29;20035;-87
2023/04/26 04:19:15;;;;;;;13.07;5.57;;;;;;;0.47;100.00;101914.50;4897247;29;20421;-87
2023/04/26 04:21:42;;;;;;;14.15;5.35;;;;;;;0.48;100.00;101923.84;4896597;29;20050;-87
2023/04/26 04:24:07;;;;;;;13.13;5.40;;;;;;;0.48;100.00;101928.94;4897107;29;20123;-87
2023/04/26 04:26:33;;;;;;;13.80;5.38;;;;;;;0.47;100.00;101932.34;4900869;29;20036;-87
2023/04/26 04:29:07;;;;;;;14.18;6.10;;;;;;;0.44;100.00;101919.47;4900783;29;20024;-87
2023/04/26 04:31:32;;;;;;;14.05;5.95;;;;;;;0.47;100.00;101932.34;4897244;29;20464;-87
2023/04/26 04:33:58;;;;;;;14.43;5.32;;;;;;;0.46;100.00;101935.72;4914154;29;20757;-87
2023/04/26 04:36:25;;;;;;;14.60;6.05;;;;;;;0.49;100.00;101932.38;4897480;29;20086;-88
2023/04/26 04:38:52;;;;;;;13.07;5.63;;;;;;;0.51;100.00;101933.31;4912866;29;20039;-87
2023/04/26 04:41:19;;;;;;;16.50;5.75;;;;;;;0.52;100.00;101935.91;4896936;29;20032;-87
2023/04/26 04:43:44;;;;;;;14.05;5.70;;;;;;;0.55;100.00;101924.94;4913151;29;20059;-87
2023/04/26 04:46:09;;;;;;;13.90;5.57;;;;;;;0.63;100.00;101938.81;4914059;29;21027;-88
2023/04/26 04:48:37;;;;;;;16.90;6.00;;;;;;;0.61;100.00;101936.25;4911990;29;20746;-88
2023/04/26 04:51:03;;;;;;;15.35;6.05;;;;;;;0.69;100.00;101949.22;4896734;29;20091;-88
2023/04/26 04:53:28;;;;;;;16.00;5.80;;;;;;;0.69;100.00;101942.44;4896899;29;20127;-88
2023/04/26 04:55:53;;;;;;;15.32;6.20;;;;;;;0.77;100.00;101943.56;4915752;29;20471;-88
2023/04/26 04:58:19;;;;;;;13.50;5.43;;;;;;;0.78;100.00;101945.31;4909280;29;20038;-87
2023/04/26 05:00:45;;;;;;;14.32;5.75;;;;;;;0.91;100.00;101945.72;4914606;29;20040;-87
2023/04/26 05:03:12;;;;;;;14.02;5.78;;;;;;;0.89;100.00;101940.56;4913591;29;20383;-88
2023/04/26 05:05:38;;;;;;;14.60;5.95;;;;;;;0.99;100.00;101940.06;4897059;29;20052;-88
2023/04/26 05:08:06;;;;;;;16.35;6.07;;;;;;;1.10;100.00;101940.38;4896218;29;20024;-88
2023/04/26 05:10:31;;;;;;;16.55;6.07;;;;;;;1.18;100.00;101944.06;4895528;29;20525;-88
2023/04/26 05:12:57;;;;;;;14.07;5.30;;;;;;;1.35;100.00;101957.38;4896711;29;20031;-88
2023/04/26 05:15:22;;;;;;;15.63;6.40;;;;;;;1.43;100.00;101961.88;4913971;29;20027;-86
2023/04/26 05:17:48;;;;;;;15.60;6.35;;;;;;;1.58;100.00;101961.50;4914479;29;20417;-87
2023/04/26 05:20:13;;;;;;;17.95;6.00;;;;;;;1.71;100.00;101963.59;4894682;29;20131;-87
2023/04/26 05:22:39;;;;;;;14.85;6.55;;;;;;;1.83;100.00;101960.56;4910899;29;20385;-87
2023/04/26 05:25:06;;;;;;;17.75;6.35;;;;;;;1.99;100.00;101960.19;4910730;29;20058;-87
2023/04/26 05:27:32;;;;;;;15.27;6.13;;;;;;;2.07;100.00;101948.50;4893916;29;20039;-88
2023/04/26 05:29:59;;;;;;;16.63;6.93;;;;;;;2.26;100.00;101957.53;4894475;29;20030;-87
2023/04/26 05:32:25;;;;;;;17.77;7.05;;;;;;;2.41;100.00;101959.66;4894333;29;20126;-87
2023/04/26 05:34:50;;;;;;;16.85;7.45;;;;;;;2.56;100.00;101965.19;4894713;29;20132;-88
2023/04/26 05:37:16;;;;;;;26.42;8.68;;;;;;;2.56;100.00;101930.25;4908940;29;20063;-87
2023/04/26 05:39:41;;;;;;;19.48;7.65;;;;;;;2.77;100.00;101950.41;4895916;29;20054;-87
2023/04/26 05:42:07;;;;;;;19.98;8.38;;;;;;;2.87;100.00;101952.38;4906281;29;20586;-88
2023/04/26 05:44:32;;;;;;;25.05;8.82;;;;;;;2.90;100.00;101951.59;4892054;29;20036;-88
2023/04/26 05:46:57;;;;;;;22.10;8.82;;;;;;;2.96;100.00;101955.16;4893699;29;20056;-88
2023/04/26 05:49:23;;;;;;;19.02;8.20;;;;;;;2.98;100.00;101950.09;4910460;29;20071;-88
2023/04/26 05:51:48;;;;;;;21.05;8.93;;;;;;;3.10;100.00;101960.63;4894419;29;20035;-88
2023/04/26 05:54:14;;;;;;;19.15;8.50;;;;;;;3.14;100.00;101965.00;4895506;29;20473;-89
2023/04/26 05:56:39;;;;;;;20.63;8.48;;;;;;;3.12;100.00;101954.72;4908898;29;20043;-89
2023/04/26 05:59:04;;;;;;;22.08;8.63;;;;;;;3.22;100.00;101967.75;4909713;29;20411;-89
2023/04/26 06:01:30;;;;;;;24.10;9.43;;;;;;;3.24;100.00;101969.53;4895356;29;20402;-88
2023/04/26 06:03:55;;;;;;;23.02;9.18;;;;;;;3.37;100.00;101970.69;4912218;29;20160;-89
2023/04/26 06:06:20;;;;;;;23.98;10.07;;;;;;;3.49;100.00;101963.25;4912299;29;20142;-90
2023/04/26 06:08:46;;;;;;;27.88;9.55;;;;;;;3.64;100.00;101966.19;4894503;29;20031;-91
2023/04/26 06:11:11;;;;;;;25.15;9.98;;;;;;;3.81;100.00;101972.56;4912332;29;20031;-89
2023/04/26 06:13:36;;;;;;;23.40;9.40;;;;;;;3.97;100.00;101969.50;4911286;29;20118;-88
2023/04/26 06:16:02;;;;;;;23.17;9.88;;;;;;;4.21;100.00;101961.44;4911200;29;20039;-88
2023/04/26 06:18:27;;;;;;;21.27;9.18;;;;;;;4.51;100.00;101961.16;4911717;29;20398;-88
2023/04/26 06:20:53;;;;;;;18.63;9.40;;;;;;;4.81;100.00;101967.69;4894748;29;20059;-88
2023/04/26 06:23:18;;;;;;;24.02;9.65;;;;;;;4.98;100.00;101959.44;4910664;29;20474;-89
2023/04/26 06:25:44;;;;;;;22.75;10.02;;;;;;;5.27;100.00;101965.06;4910479;29;20024;-88
2023/04/26 06:28:11;;;;;;;17.83;8.80;;;;;;;5.49;100.00;101948.28;4905646;29;20135;-89
2023/04/26 06:30:36;;;;;;;18.63;8.63;;;;;;;5.72;100.00;101957.19;4890720;29;20069;-89
2023/04/26 06:33:02;;;;;;;19.50;8.93;;;;;;;5.89;100.00;101960.88;4892334;29;20480;-89
2023/04/26 06:35:27;;;;;;;22.35;7.95;;;;;;;6.07;100.00;101970.56;4913024;29;20023;-89
2023/04/26 06:37:52;;;;;;;16.65;8.10;;;;;;;6.17;100.00;101964.66;4913365;29;20032;-89
2023/04/26 06:40:18;;;;;;;18.58;8.05;;;;;;;6.23;100.00;101967.31;4897643;29;20083;-89
2023/04/26 06:42:44;;;;;;;17.67;8.45;;;;;;;6.38;100.00;101974.38;4894327;29;20158;-89
2023/04/26 06:45:10;;;;;;;19.42;7.57;;;;;;;6.44;100.00;101971.00;4907055;29;20046;-87
2023/04/26 06:47:35;;;;;;;19.65;8.27;;;;;;;6.65;100.00;101981.53;4892923;29;20032;-87
2023/04/26 06:50:03;;;;;;;19.67;8.45;;;;;;;6.86;100.00;101988.63;4908694;29;20378;-87
2023/04/26 06:52:28;;;;;;;16.67;7.90;;;;;;;7.10;100.00;101981.09;4910121;29;20424;-88
2023/04/26 06:54:54;;;;;;;18.52;8.15;;;;;;;7.35;99.04;101987.34;4911492;29;20030;-88
2023/04/26 06:57:19;;;;;;;19.65;8.43;;;;;;;7.63;100.00;101984.13;4912455;29;20055;-88
2023/04/26 06:59:45;;;;;;;16.10;7.18;;;;;;;7.88;95.67;101986.00;4914803;29;20035;-88
2023/04/26 07:02:11;;;;;;;17.02;7.40;;;;;;;7.94;91.34;101974.81;4911145;29;20124;-88
2023/04/26 07:04:36;;;;;;;16.05;7.45;;;;;;;8.04;92.62;101981.78;4895708;29;20036;-87
2023/04/26 07:07:02;;;;;;;15.77;7.30;;;;;;;8.03;89.23;101984.34;4912352;29;20047;-87
2023/04/26 07:09:27;;;;;;;19.92;7.45;;;;;;;8.04;91.32;101996.41;4911257;29;20037;-88
2023/04/26 07:11:52;;;;;;;16.30;7.53;;;;;;;8.12;91.31;101980.06;4892605;29;20025;-89
2023/04/26 07:14:18;;;;;;;17.00;7.25;;;;;;;8.20;90.67;101968.06;4910387;29;20039;-89
2023/04/26 07:16:43;;;;;;;14.55;6.90;;;;;;;8.39;90.14;101970.75;4908292;29;20028;-89
2023/04/26 07:19:09;;;;;;;15.23;6.50;;;;;;;8.65;89.94;101985.47;4894467;29;20028;-88
2023/04/26 07:21:35;;;;;;;14.63;6.70;;;;;;;8.80;89.20;101989.84;4896936;29;20036;-89
2023/04/26 07:24:05;;;;;;;15.02;6.18;;;;;;;8.91;88.72;101987.25;4909230;29;20037;-89
2023/04/26 07:26:30;;;;;;;16.20;6.40;;;;;;;8.89;86.63;101978.63;4912078;29;20115;-89
2023/04/26 07:28:56;;;;;;;11.43;5.93;;;;;;;8.96;85.86;101972.59;4912665;29;20104;-88
2023/04/26 07:31:24;;;;;;;18.50;5.55;;;;;;;9.06;87.30;101977.78;4895421;29;20326;-88
2023/04/26 07:33:49;;;;;;;11.25;5.53;;;;;;;9.27;85.85;101986.44;4911413;29;20076;-89
2023/04/26 07:36:15;;;;;;;15.23;5.32;;;;;;;9.58;86.25;101977.75;4893047;29;20555;-92
2023/04/26 07:38:43;;;;;;;12.15;5.50;;;;;;;9.88;83.52;101953.53;4913136;29;20613;-89
2023/04/26 07:41:11;;;;;;;11.05;4.70;;;;;;;10.48;77.86;101974.91;4893601;29;20140;-91
2023/04/26 07:43:38;;;;;;;8.90;4.50;;;;;;;10.78;75.82;101982.50;4911682;29;20102;-90
2023/04/26 07:46:03;;;;;;;8.82;4.32;;;;;;;10.69;76.38;101951.47;4913097;29;20186;-90
2023/04/26 07:48:29;;;;;;;11.27;5.60;;;;;;;10.67;75.12;101950.59;4911586;29;20027;-90
2023/04/26 07:50:54;;;;;;;11.52;5.88;;;;;;;10.82;76.74;101967.78;4894951;29;20629;-89
2023/04/26 07:53:20;;;;;;;12.45;6.45;;;;;;;10.93;77.39;101964.25;4911328;29;20602;-90
2023/04/26 07:55:46;;;;;;;11.90;5.53;;;;;;;11.45;75.31;101974.22;4896139;29;20040;-91
2023/04/26 07:58:13;;;;;;;15.02;4.40;;;;;;;11.91;70.14;101977.25;4911479;29;20074;-90
2023/04/26 08:00:39;;;;;;;10.68;4.13;;;;;;;11.89;70.90;101968.59;4903207;29;20039;-91
2023/04/26 08:03:11;;;;;;;10.50;4.13;;;;;;;11.62;72.36;101985.28;4906247;29;20048;-90
2023/04/26 08:05:36;;;;;;;9.75;2.90;;;;;;;11.32;68.97;101970.03;4905584;29;20029;-90
2023/04/26 08:08:02;;;;;;;7.65;3.03;;;;;;;11.25;68.52;101963.16;4908134;29;20035;-90
2023/04/26 08:10:28;;;;;;;7.78;2.88;;;;;;;11.94;70.18;101961.59;4895026;29;20032;-91
2023/04/26 08:12:56;;;;;;;4.00;1.83;;;;;;;12.37;62.82;101977.53;4915698;29;20194;-89
2023/04/26 08:15:22;;;;;;;6.95;2.60;;;;;;;12.30;65.15;101968.09;4912402;29;20300;-89
2023/04/26 08:17:52;;;;;;;7.70;2.10;;;;;;;11.96;64.54;101988.44;4918651;29;20536;-90
2023/04/26 08:20:17;;;;;;;7.75;1.92;;;;;;;11.41;61.30;101978.56;4916207;29;20035;-90
2023/04/26 08:22:43;;;;;;;7.13;2.30;;;;;;;11.06;65.47;101989.22;4916637;29;20031;-91
2023/04/26 08:25:09;;;;;;;5.90;2.33;;;;;;;11.20;65.80;101980.47;4914380;29;20035;-89
2023/04/26 08:27:35;;;;;;;6.10;2.30;;;;;;;11.28;67.16;101969.16;4916200;29;20070;-89
2023/04/26 08:30:01;;;;;;;5.45;2.10;;;;;;;11.21;67.13;101970.09;4897955;29;20059;-89
2023/04/26 08:32:26;;;;;;;6.38;2.35;;;;;;;11.23;65.82;101985.66;4916343;29;20123;-90
2023/04/26 08:34:52;;;;;;;5.53;2.10;;;;;;;11.20;69.69;101978.75;4897177;29;20171;-89
2023/04/26 08:37:20;;;;;;;7.13;2.50;;;;;;;11.59;64.56;101987.06;4914521;29;20036;-89
2023/04/26 08:39:45;;;;;;;5.03;2.22;;;;;;;12.09;59.55;101960.56;4898932;29;20073;-90
2023/04/26 08:42:25;;;;;;;7.40;2.50;;;;;;;12.23;62.05;101967.31;4898717;29;20072;-90
2023/04/26 08:44:52;;;;;;;8.50;2.35;;;;;;;11.85;59.40;101972.13;4914870;29;20043;-88
2023/04/26 08:47:23;;;;;;;6.63;2.28;;;;;;;11.38;61.14;101970.81;4901699;29;20031;-89
2023/04/26 08:50:02;;;;;;;6.38;2.25;;;;;;;10.99;64.09;101974.56;4914050;29;20288;-90
2023/04/26 08:52:34;;;;;;;6.18;2.50;;;;;;;10.55;63.19;101979.19;4915439;29;20118;-89
2023/04/26 08:54:59;;;;;;;8.00;2.83;;;;;;;10.15;64.10;101957.75;4913233;29;20028;-89
2023/04/26 08:57:26;;;;;;;5.35;2.38;;;;;;;10.06;65.20;101988.88;4897522;29;20035;-89
2023/04/26 08:59:52;;;;;;;6.72;2.70;;;;;;;9.65;65.16;101968.25;4895140;29;20257;-89
2023/04/26 09:02:22;;;;;;;7.53;2.38;;;;;;;9.46;65.27;101964.84;4913568;29;20039;-89
2023/04/26 09:04:49;;;;;;;7.72;2.75;;;;;;;9.43;64.51;101980.34;4898585;29;20040;-90
2023/04/26 09:07:30;;;;;;;5.72;2.80;;;;;;;9.33;68.31;101974.34;4914418;29;20122;-89
2023/04/26 09:09:57;;;;;;;5.85;2.50;;;;;;;9.33;72.26;101961.41;4916369;29;20020;-89
2023/04/26 09:12:23;;;;;;;6.95;2.65;;;;;;;9.40;71.10;101970.91;4914644;29;20069;-89
2023/04/26 09:14:49;;;;;;;7.85;2.70;;;;;;;9.38;65.24;101982.09;4910674;29;20054;-89
2023/04/26 09:17:33;;;;;;;9.55;2.50;;;;;;;9.35;70.67;101951.03;4913832;29;20036;-89
2023/04/26 09:20:16;;;;;;;7.87;2.23;;;;;;;9.47;69.58;101972.63;4914883;29;20489;-89
2023/04/26 09:22:45;;;;;;;7.97;2.53;;;;;;;9.48;70.06;101960.53;4898499;29;20060;-89
2023/04/26 09:25:16;;;;;;;8.73;2.60;;;;;;;9.48;71.01;101957.94;4897463;29;20047;-89
2023/04/26 09:27:45;;;;;;;4.82;2.40;;;;;;;9.67;66.09;101974.31;4913755;29;20039;-89
2023/04/26 09:30:17;;;;;;;6.18;2.33;;;;;;;9.76;66.92;101945.78;4914001;29;20020;-89
2023/04/26 09:33:02;;;;;;;6.30;2.33;;;;;;;10.14;70.12;101943.94;4913121;29;20489;-90
2023/04/26 09:35:43;;;;;;;8.02;2.70;;;;;;;10.70;65.99;101958.38;4895141;29;20028;-89
2023/04/26 09:38:13;;;;;;;5.50;2.30;;;;;;;10.74;61.68;101948.81;4895902;29;20456;-90
2023/04/26 09:40:43;;;;;;;5.90;2.55;;;;;;;10.67;58.92;101959.25;4913954;29;20031;-90
2023/04/26 09:43:18;;;;;;;7.20;2.40;;;;;;;10.65;62.70;101973.06;4913719;29;20031;-89
2023/04/26 09:45:49;;;;;;;4.88;2.22;;;;;;;10.49;64.67;101974.06;4900313;29;20031;-90
2023/04/26 09:48:22;;;;;;;6.25;2.35;;;;;;;10.38;62.96;101983.59;4910816;29;20118;-89
2023/04/26 09:50:52;;;;;;;6.45;2.50;;;;;;;10.14;62.13;101954.31;4898229;29;20394;-90
2023/04/26 09:53:28;;;;;;;8.30;2.30;;;;;;;10.19;66.54;101955.19;4910503;29;20035;-89
2023/04/26 09:56:06;;;;;;;6.10;2.50;;;;;;;10.25;63.92;101954.28;4914546;29;20028;-90
2023/04/26 09:58:31;;;;;;;6.32;2.40;;;;;;;10.33;59.25;101967.22;4895127;29;20066;-90
2023/04/26 10:00:58;;;;;;;7.15;2.33;;;;;;;10.35;63.97;101944.75;4895900;29;20170;-90
2023/04/26 10:03:24;;;;;;;6.10;2.05;;;;;;;10.47;64.76;101953.31;4895746;29;20126;-91
2023/04/26 10:05:52;;;;;;;5.70;2.50;;;;;;;10.68;64.56;101958.38;4909981;29;20480;-90
2023/04/26 10:08:18;;;;;;;5.13;2.38;;;;;;;10.81;64.26;101955.69;4913961;29;20036;-90
2023/04/26 10:10:48;;;;;;;7.45;2.40;;;;;;;10.88;67.24;101947.88;4912705;29;20042;-90
2023/04/26 10:13:15;;;;;;;7.07;2.45;;;;;;;10.88;61.98;101954.78;4915540;29;20032;-91
2023/04/26 10:15:46;;;;;;;7.75;2.67;;;;;;;10.78;59.27;101961.75;4915235;29;20149;-90
2023/04/26 10:18:19;;;;;;;6.35;2.60;;;;;;;10.63;60.74;101964.47;4912016;29;20083;-90
2023/04/26 10:20:50;;;;;;;8.63;2.10;;;;;;;10.43;62.41;101976.69;4896570;29;20029;-94
2023/04/26 10:23:20;;;;;;;6.10;2.10;;;;;;;10.19;63.29;101957.75;4913865;29;20476;-94
2023/04/26 10:25:46;;;;;;;5.18;2.08;;;;;;;10.08;62.14;101949.16;4895054;29;20197;-93
2023/04/26 10:28:12;;;;;;;6.47;2.05;;;;;;;10.11;58.31;101972.44;4895596;29;20094;-94
2023/04/26 10:30:57;;;;;;;6.45;2.22;;;;;;;9.96;60.58;101953.53;4913184;29;20449;-94
2023/04/26 10:33:24;;;;;;;5.57;2.25;;;;;;;9.95;64.63;101949.19;4912000;29;20039;-93
2023/04/26 10:36:14;;;;;;;4.53;2.22;;;;;;;10.07;66.22;101952.59;4894552;29;20016;-93
2023/04/26 10:38:44;;;;;;;5.28;2.17;;;;;;;10.17;63.74;101956.91;4892682;29;20107;-94
2023/04/26 10:41:38;;;;;;;4.03;2.20;;;;;;;10.37;64.14;101958.56;4913038;29;20035;-93
2023/04/26 10:44:44;;;;;;;5.70;2.30;;;;;;;10.54;64.38;101952.41;4893727;29;20147;-94
2023/04/26 10:47:37;;;;;;;5.80;2.28;;;;;;;10.69;64.47;101951.47;4893461;29;20039;-95
2023/04/26 10:50:06;;;;;;;4.97;2.50;;;;;;;10.84;64.62;101948.78;4913018;29;20103;-90
2023/04/26 10:52:32;;;;;;;5.18;2.20;;;;;;;10.93;59.61;101953.88;4909629;29;20116;-90
2023/04/26 10:54:59;;;;;;;3.50;2.00;;;;;;;10.78;54.47;101925.44;4910825;29;20032;-90
2023/04/26 10:57:46;;;;;;;5.90;2.17;;;;;;;10.85;56.54;101942.69;4893393;29;20057;-89
2023/04/26 11:00:15;;;;;;;7.13;2.25;;;;;;;10.82;60.98;101942.72;4892010;29;20028;-89
2023/04/26 11:02:47;;;;;;;3.47;2.20;;;;;;;10.90;62.78;101946.13;4911975;29;20086;-90
2023/04/26 11:05:34;;;;;;;7.95;2.70;;;;;;;10.96;62.87;101938.31;4911441;29;20035;-90
2023/04/26 11:08:12;;;;;;;7.72;2.63;;;;;;;11.14;57.55;101944.19;4894167;29;20035;-90
2023/04/26 11:10:38;;;;;;;8.13;2.38;;;;;;;11.07;57.93;101925.22;4896388;29;20130;-90
2023/04/26 11:13:04;;;;;;;7.07;2.78;;;;;;;11.26;58.75;101926.78;4912126;29;20038;-90
2023/04/26 11:15:33;;;;;;;10.25;2.70;;;;;;;11.38;53.58;101911.13;4893852;29;20027;-90
2023/04/26 11:18:02;;;;;;;7.95;2.80;;;;;;;11.70;56.79;101915.97;4895500;29;20028;-90
2023/04/26 11:20:31;;;;;;;4.82;3.10;;;;;;;11.85;58.69;101907.16;4894626;29;20461;-91